This is the latest recevied weather packets stored in our database for station/object HB9EKO-12. If no packets are shown the sender has not sent any weather packets the latest 1 day(s).
| Time | Temp. | Humidity | Pressure | Rain* | Wind** | Luminosity | Snow |
|---|---|---|---|---|---|---|---|
| 1777947166 | 11.11° C | 95% | 1012 hPa | - | 0 m/s | - | - |
| 1777946260 | 11.11° C | 95% | 1012 hPa | - | 0 m/s | - | - |
| 1777945355 | 10.56° C | 96% | 1012 hPa | - | 0 m/s | - | - |
| 1777944450 | 10.56° C | 96% | 1012 hPa | - | 0 m/s | - | - |
| 1777943545 | 11.11° C | 95% | 1013 hPa | - | 0 m/s | - | - |
| 1777942639 | 11.67° C | 92% | 1013 hPa | - | 0 m/s | - | - |
| 1777941734 | 11.67° C | 92% | 1013 hPa | - | 0 m/s | - | - |
| 1777939924 | 12.22° C | 91% | 1013 hPa | - | 0 m/s | - | - |
| 1777939018 | 12.22° C | 90% | 1013 hPa | - | 0 m/s | - | - |
| 1777938113 | 12.78° C | 88% | 1013 hPa | - | 0 m/s | - | - |
| 1777937208 | 12.78° C | 90% | 1014 hPa | - | 0 m/s | - | - |
| 1777936303 | 12.78° C | 90% | 1014 hPa | - | 0 m/s | - | - |
| 1777935398 | 12.78° C | 91% | 1014 hPa | - | 0 m/s | - | - |
| 1777934492 | 12.78° C | 91% | 1014 hPa | - | 0 m/s | - | - |
| 1777933587 | 12.78° C | 89% | 1014 hPa | - | 0.89 m/s, 0° | - | - |
| 1777932682 | 13.33° C | 89% | 1014 hPa | - | 0 m/s | - | - |
| 1777931776 | 13.89° C | 88% | 1014 hPa | - | 0 m/s | - | - |
| 1777930871 | 13.89° C | 87% | 1014 hPa | - | 0 m/s | - | - |
| 1777929966 | 13.89° C | 88% | 1014 hPa | - | 0.45 m/s, 0° | - | - |
| 1777929061 | 13.33° C | 89% | 1014 hPa | - | 0.45 m/s, 0° | - | - |
* Rain since midnight (hover to see other rain measurements)
** Current wind speed in m/s (hover to see current wind gust speed)